Owatonna, MN

8:22 AM CST on February 12, 2016 (GMT -0600)
Owatonna Degner Regional

Weather History for KOWA - May, 2013

Change the Weather History Date:

Saturday, May 4, 2013

  Actual Average Record
Temperature  
Mean Temperature 40 °F -  
Max Temperature 46 °F 67 °F 90 °F (1980)
Min Temperature 33 °F 42 °F 25 °F (1967)
Degree Days  
Heating Degree Days 26    
Moisture  
Dew Point 36 °F    
Average Humidity 92    
Maximum Humidity 100    
Minimum Humidity 81    
Precipitation  
Precipitation 0.00 in - - ()
Sea Level Pressure  
Sea Level Pressure 30.10 in    
Wind  
Wind Speed 10 mph (NNE)    
Max Wind Speed 16 mph    
Max Gust Speed 21 mph    
Visibility 9 miles    
Events Rain    
Averages and records for this station are not official NWS values.
T = Trace of Precipitation, MM = Missing Value Source: NWS Daily Summary

Daily Weather History Graph

Daily Weather History Graph

Search for Another Location

Airport or City:

Trip Planner

Search our weather history database for the weather conditions in past years. The results will help you decide how hot, cold, wet, or windy it might be!

Date:

Astronomy

May. 04, 2013 Rise Set
Actual Time 5:59 AM CDT 8:20 PM CDT
Civil Twilight 5:27 AM CDT 8:52 PM CDT
Nautical Twilight 4:47 AM CDT 9:32 PM CDT
Astronomical Twilight 4:03 AM CDT 10:17 PM CDT
Moon 3:10 AM CDT (5/4) 3:08 PM CDT (5/4)
Length of Visible Light 15h 25m
Length of Day
14h 20m
Waning Crescent, 27% of the Moon is Illuminated
May 4
Waning Crescent
May 9
New
May 17
First Quarter
May 24
Full
May 31
Last Quarter

Hourly Weather History & Observations

Time (CDT) Temp. Windchill Dew Point Humidity Pressure Visibility Wind Dir Wind Speed Gust Speed Precip Events Conditions
12:14 AM 33.8 °F 24.8 °F 32.0 °F 93% 30.11 in 10.0 mi North 12.7 mph - N/A   Overcast
12:34 AM 33.8 °F 24.3 °F 32.0 °F 93% 30.09 in 10.0 mi North 13.8 mph - N/A   Light Drizzle
12:54 AM 33.8 °F 25.8 °F 32.0 °F 93% 30.09 in 10.0 mi North 10.4 mph - N/A   Drizzle
1:14 AM 33.8 °F 25.3 °F 32.0 °F 93% 30.08 in 10.0 mi North 11.5 mph 17.3 mph N/A   Light Drizzle
1:54 AM 33.8 °F 24.8 °F 32.0 °F 93% 30.07 in 10.0 mi North 12.7 mph - N/A   Overcast
2:14 AM 33.8 °F 25.8 °F 33.8 °F 100% 30.08 in 7.0 mi North 10.4 mph - N/A   Overcast
2:34 AM 33.8 °F 24.8 °F 33.8 °F 100% 30.08 in 7.0 mi NNE 12.7 mph - N/A   Drizzle
2:54 AM 33.8 °F 24.3 °F 33.8 °F 100% 30.06 in 5.0 mi North 13.8 mph 19.6 mph N/A   Drizzle
3:14 AM 33.8 °F 24.8 °F 33.8 °F 100% 30.06 in 10.0 mi North 12.7 mph - N/A   Drizzle
3:34 AM 33.8 °F 24.8 °F 33.8 °F 100% 30.07 in 10.0 mi North 12.7 mph - N/A Rain Rain
3:54 AM 33.8 °F 23.5 °F 32.0 °F 93% 30.05 in 10.0 mi North 16.1 mph - N/A Rain Light Rain
4:14 AM 33.8 °F 24.8 °F 33.8 °F 100% 30.05 in 10.0 mi NNE 12.7 mph - N/A   Overcast
4:34 AM 33.8 °F 25.3 °F 33.8 °F 100% 30.06 in 10.0 mi North 11.5 mph 20.7 mph N/A   Overcast
4:54 AM 33.8 °F 25.3 °F 33.8 °F 100% 30.07 in 10.0 mi North 11.5 mph 17.3 mph N/A   Overcast
5:14 AM 33.8 °F 24.8 °F 33.8 °F 100% 30.07 in 10.0 mi NNE 12.7 mph - N/A   Overcast
5:34 AM 33.8 °F 25.3 °F 33.8 °F 100% 30.07 in 10.0 mi NNE 11.5 mph 18.4 mph N/A   Light Drizzle
5:54 AM 33.8 °F 24.8 °F 33.8 °F 100% 30.06 in 10.0 mi North 12.7 mph 16.1 mph N/A   Drizzle
6:14 AM 33.8 °F 25.3 °F 33.8 °F 100% 30.06 in 7.0 mi NNE 11.5 mph 17.3 mph N/A Rain Rain
6:34 AM 33.8 °F 26.4 °F 33.8 °F 100% 30.07 in 10.0 mi NNE 9.2 mph - N/A   Overcast
6:54 AM 33.8 °F 25.3 °F 33.8 °F 100% 30.07 in 10.0 mi NNE 11.5 mph - N/A   Overcast
7:14 AM 33.8 °F 26.4 °F 33.8 °F 100% 30.08 in 10.0 mi NNE 9.2 mph - N/A   Overcast
7:34 AM 33.8 °F 24.8 °F 33.8 °F 100% 30.08 in 10.0 mi NNE 12.7 mph 17.3 mph N/A   Overcast
7:54 AM 35.6 °F 28.6 °F 33.8 °F 93% 30.07 in 10.0 mi North 9.2 mph - N/A   Overcast
8:14 AM 35.6 °F 28.6 °F 33.8 °F 93% 30.07 in 10.0 mi North 9.2 mph - N/A   Overcast
8:34 AM 35.6 °F 27.5 °F 33.8 °F 93% 30.08 in 10.0 mi NNE 11.5 mph - N/A   Overcast
8:54 AM 35.6 °F 27.1 °F 33.8 °F 93% 30.08 in 7.0 mi NNE 12.7 mph 17.3 mph N/A   Overcast
9:14 AM 35.6 °F 27.5 °F 33.8 °F 93% 30.08 in 5.0 mi North 11.5 mph - N/A   Overcast
9:34 AM 35.6 °F 28.6 °F 35.6 °F 100% 30.08 in 7.0 mi NNE 9.2 mph - N/A   Overcast
9:54 AM 35.6 °F 28.0 °F 35.6 °F 100% 30.08 in 7.0 mi NNE 10.4 mph - N/A   Overcast
10:14 AM 35.6 °F 28.0 °F 35.6 °F 100% 30.08 in 10.0 mi NNE 10.4 mph - N/A   Overcast
10:34 AM 35.6 °F 27.1 °F 35.6 °F 100% 30.09 in 7.0 mi NNE 12.7 mph 17.3 mph N/A   Overcast
10:54 AM 37.4 °F 30.8 °F 35.6 °F 93% 30.09 in 10.0 mi North 9.2 mph - N/A   Overcast
11:14 AM 37.4 °F 29.8 °F 35.6 °F 93% 30.10 in 7.0 mi NNE 11.5 mph - N/A   Overcast
11:34 AM 37.4 °F 30.3 °F 35.6 °F 93% 30.10 in 10.0 mi NNE 10.4 mph - N/A   Overcast
11:54 AM 37.4 °F 30.8 °F 35.6 °F 93% 30.11 in 7.0 mi NE 9.2 mph - N/A   Overcast
12:14 PM 37.4 °F 31.4 °F 35.6 °F 93% 30.11 in 10.0 mi NE 8.1 mph - N/A   Overcast
12:39 PM 37.4 °F 30.3 °F 35.6 °F 93% 30.12 in 10.0 mi NNE 10.4 mph - N/A   Overcast
12:54 PM 37.4 °F 30.3 °F 35.6 °F 93% 30.11 in 10.0 mi NNE 10.4 mph - N/A   Overcast
1:14 PM 39.2 °F 32.0 °F 35.6 °F 87% 30.11 in 7.0 mi North 11.5 mph - N/A   Overcast
1:34 PM 39.2 °F 32.5 °F 35.6 °F 87% 30.11 in 10.0 mi North 10.4 mph - N/A   Mostly Cloudy
1:54 PM 41.0 °F 35.2 °F 37.4 °F 87% 30.10 in 10.0 mi North 9.2 mph - N/A   Clear
2:14 PM 41.0 °F 35.2 °F 37.4 °F 87% 30.10 in 10.0 mi North 9.2 mph - N/A   Clear
2:34 PM 42.8 °F 38.0 °F 37.4 °F 81% 30.10 in 10.0 mi NNE 8.1 mph - N/A   Clear
2:54 PM 42.8 °F 37.0 °F 37.4 °F 81% 30.11 in 10.0 mi NNE 10.4 mph - N/A   Scattered Clouds
3:14 PM 42.8 °F 38.6 °F 37.4 °F 81% 30.11 in 10.0 mi NNE 6.9 mph - N/A   Scattered Clouds
3:34 PM 42.8 °F 37.5 °F 37.4 °F 81% 30.11 in 10.0 mi North 9.2 mph - N/A   Mostly Cloudy
3:54 PM 42.8 °F 36.6 °F 37.4 °F 81% 30.11 in 10.0 mi North 11.5 mph - N/A   Overcast
4:14 PM 44.6 °F 38.8 °F 39.2 °F 81% 30.10 in 10.0 mi NNE 11.5 mph - N/A   Overcast
4:34 PM 44.6 °F 40.2 °F 39.2 °F 81% 30.10 in 10.0 mi NNE 8.1 mph - N/A   Overcast
4:54 PM 44.6 °F 40.2 °F 39.2 °F 81% 30.09 in 10.0 mi NNE 8.1 mph - N/A   Overcast
5:14 PM 46.4 °F 42.9 °F 41.0 °F 81% 30.09 in 10.0 mi North 6.9 mph - N/A   Mostly Cloudy
5:34 PM 46.4 °F 42.4 °F 41.0 °F 81% 30.10 in 10.0 mi North 8.1 mph - N/A   Mostly Cloudy
5:54 PM 46.4 °F 42.9 °F 41.0 °F 81% 30.10 in 10.0 mi North 6.9 mph - N/A   Mostly Cloudy
6:14 PM 44.6 °F 40.7 °F 41.0 °F 87% 30.10 in 10.0 mi North 6.9 mph - N/A   Mostly Cloudy
6:34 PM 46.4 °F 43.5 °F 41.0 °F 81% 30.10 in 10.0 mi NNE 5.8 mph - N/A   Overcast
6:54 PM 46.4 °F 44.3 °F 42.8 °F 87% 30.10 in 10.0 mi NNE 4.6 mph - N/A   Scattered Clouds
7:14 PM 44.6 °F - 41.0 °F 87% 30.11 in 10.0 mi Calm Calm - N/A   Clear
7:23 PM 44.6 °F - 39.2 °F 81% 30.11 in 10.0 mi Calm Calm - N/A   Clear
7:54 PM 41.0 °F 38.0 °F 39.2 °F 93% 30.11 in 7.0 mi NW 4.6 mph - N/A   Clear
8:14 PM 42.8 °F - 39.2 °F 87% 30.12 in 7.0 mi Calm Calm - N/A   Clear
8:34 PM 42.8 °F 41.1 °F 39.2 °F 87% 30.13 in 10.0 mi NNW 3.5 mph - N/A   Scattered Clouds
8:54 PM 44.6 °F - 41.0 °F 87% 30.13 in 10.0 mi Calm Calm - N/A   Scattered Clouds
9:14 PM 42.8 °F 40.1 °F 39.2 °F 87% 30.13 in 10.0 mi NNW 4.6 mph - N/A   Scattered Clouds
9:34 PM 41.0 °F 37.1 °F 39.2 °F 93% 30.13 in 10.0 mi NNW 5.8 mph - N/A   Scattered Clouds
9:54 PM 42.8 °F 40.1 °F 39.2 °F 87% 30.13 in 10.0 mi NNW 4.6 mph - N/A   Clear
10:14 PM 41.0 °F - 37.4 °F 87% 30.13 in 10.0 mi Calm Calm - N/A   Clear
10:34 PM 39.2 °F - 37.4 °F 93% 30.14 in 10.0 mi Calm Calm - N/A   Scattered Clouds
10:54 PM 41.0 °F - 39.2 °F 93% 30.14 in 10.0 mi Calm Calm - N/A   Scattered Clouds
11:14 PM 39.2 °F - 37.4 °F 93% 30.14 in 7.0 mi Calm Calm - N/A   Clear
11:34 PM 42.8 °F 38.6 °F 39.2 °F 87% - 10.0 mi North 6.9 mph - N/A   Clear
11:54 PM 42.8 °F 39.3 °F 41.0 °F 93% 30.14 in 10.0 mi North 5.8 mph - N/A   Scattered Clouds